Time;durP1;ratioP1;P1;durP2;ratioP2;P2;SDS_P1;SDS_P2;PMS_P1;PMS_P2;Temp;Humidity;BMP_temperature;BMP_pressure;BME280_temperature;BME280_humidity;BME280_pressure;Samples;Min_cycle;Max_cycle;Signal;HPM_P1;HPM_P2
2023/07/08 00:00:15;;;;;;;7.53;4.78;;;17.70;99.20;;;;;;4976721;28;20077;-59
2023/07/08 00:02:42;;;;;;;8.25;4.82;;;17.60;99.30;;;;;;4972606;28;20038;-55
2023/07/08 00:05:14;;;;;;;7.70;4.88;;;17.60;99.30;;;;;;4966969;28;20047;-45
2023/07/08 00:07:41;;;;;;;7.20;4.50;;;17.60;99.40;;;;;;4966780;28;20047;-58
2023/07/08 00:10:18;;;;;;;7.38;5.05;;;17.50;99.50;;;;;;4966701;28;20061;-58
2023/07/08 00:12:47;;;;;;;10.20;4.75;;;17.60;99.70;;;;;;4966715;28;20081;-45
2023/07/08 00:15:12;;;;;;;7.13;4.80;;;17.50;99.60;;;;;;4967027;28;20127;-55
2023/07/08 00:17:38;;;;;;;9.07;5.07;;;17.50;99.90;;;;;;4966971;28;20481;-56
2023/07/08 00:20:28;;;;;;;8.20;4.93;;;17.50;99.80;;;;;;4966780;28;20562;-46
2023/07/08 00:22:54;;;;;;;8.02;4.50;;;17.50;99.90;;;;;;4967524;28;20051;-46
2023/07/08 00:25:20;;;;;;;11.20;5.05;;;17.40;99.90;;;;;;4966199;28;20074;-50
2023/07/08 00:27:47;;;;;;;6.60;4.40;;;17.40;99.90;;;;;;4966168;28;20059;-51
2023/07/08 00:30:28;;;;;;;7.53;4.75;;;17.40;99.90;;;;;;4966814;28;20093;-53
2023/07/08 00:32:55;;;;;;;7.93;4.97;;;17.40;99.90;;;;;;4967328;28;20132;-47
2023/07/08 00:35:38;;;;;;;8.05;5.20;;;17.40;99.90;;;;;;4966285;28;20046;-55
2023/07/08 00:38:19;;;;;;;8.10;4.93;;;17.40;99.90;;;;;;4966255;28;20051;-52
2023/07/08 00:40:51;;;;;;;11.30;5.50;;;17.40;99.90;;;;;;4966083;28;20860;-57
2023/07/08 00:43:19;;;;;;;9.75;4.70;;;17.30;99.90;;;;;;4966824;28;20039;-49
2023/07/08 00:45:49;;;;;;;8.57;4.80;;;17.30;99.90;;;;;;4966039;28;20422;-51
2023/07/08 00:48:24;;;;;;;9.63;5.35;;;17.20;99.90;;;;;;4966632;28;20038;-47
2023/07/08 00:50:50;;;;;;;8.50;4.85;;;17.20;99.90;;;;;;4965941;28;20439;-51
2023/07/08 00:53:29;;;;;;;6.65;4.60;;;17.20;99.90;;;;;;4965573;28;20046;-52
2023/07/08 00:56:09;;;;;;;8.45;4.95;;;17.20;99.90;;;;;;4966316;28;20101;-57
2023/07/08 00:58:45;;;;;;;7.18;4.78;;;17.20;99.90;;;;;;4965709;28;20109;-55
2023/07/08 01:01:12;;;;;;;8.43;4.60;;;17.20;99.90;;;;;;4966524;28;20722;-55
2023/07/08 01:04:01;;;;;;;9.18;4.93;;;17.20;99.90;;;;;;5025295;23;20072;-56
2023/07/08 01:06:31;;;;;;;8.18;5.13;;;17.10;99.90;;;;;;4982003;28;20085;-49
2023/07/08 01:09:05;;;;;;;8.05;5.00;;;17.10;99.90;;;;;;4971938;28;20286;-52
2023/07/08 01:11:32;;;;;;;9.23;5.28;;;17.10;99.90;;;;;;4983967;28;20081;-52
2023/07/08 01:14:01;;;;;;;11.63;5.00;;;17.00;99.90;;;;;;4983381;28;20121;-53
2023/07/08 01:16:27;;;;;;;8.15;5.00;;;17.00;99.90;;;;;;4983155;28;20072;-53
2023/07/08 01:18:53;;;;;;;6.90;4.47;;;17.00;99.90;;;;;;4982342;28;20507;-51
2023/07/08 01:21:37;;;;;;;5.40;4.35;;;17.00;99.90;;;;;;4981073;28;20116;-50
2023/07/08 01:24:06;;;;;;;8.82;4.82;;;16.90;99.90;;;;;;4982796;28;20108;-56
2023/07/08 01:26:34;;;;;;;8.93;5.00;;;16.90;99.90;;;;;;4966796;28;20058;-57
2023/07/08 01:29:01;;;;;;;6.25;4.60;;;16.90;99.90;;;;;;4963407;28;20058;-50
2023/07/08 01:31:27;;;;;;;7.53;5.20;;;16.90;99.90;;;;;;4963908;28;20057;-57
2023/07/08 01:33:53;;;;;;;7.57;5.15;;;16.80;99.90;;;;;;4962779;28;20409;-58
2023/07/08 01:36:19;;;;;;;9.40;5.32;;;16.80;99.90;;;;;;4963265;28;20065;-47
2023/07/08 01:38:46;;;;;;;9.75;5.13;;;16.80;99.90;;;;;;4963191;28;20038;-54
2023/07/08 01:41:13;;;;;;;8.27;5.28;;;16.80;99.90;;;;;;4961570;28;20053;-51
2023/07/08 01:43:39;;;;;;;8.63;5.50;;;16.80;99.90;;;;;;4963319;28;20093;-53
2023/07/08 01:46:16;;;;;;;9.00;4.70;;;16.80;99.90;;;;;;4962873;28;20082;-51
2023/07/08 01:48:48;;;;;;;9.43;5.65;;;16.80;99.90;;;;;;4960775;28;20073;-50
2023/07/08 01:51:13;;;;;;;9.82;5.63;;;16.80;99.90;;;;;;4962824;28;20378;-52
2023/07/08 01:53:41;;;;;;;10.98;5.43;;;16.70;99.90;;;;;;4968640;28;20047;-50
2023/07/08 01:56:08;;;;;;;10.23;5.30;;;16.70;99.90;;;;;;4968475;28;20245;-56
2023/07/08 01:58:34;;;;;;;7.95;5.35;;;16.70;99.90;;;;;;4962702;28;20078;-57
2023/07/08 02:01:00;;;;;;;7.72;5.70;;;16.60;99.90;;;;;;4963390;28;20070;-47
2023/07/08 02:03:27;;;;;;;8.40;5.45;;;16.60;99.90;;;;;;4962369;28;20047;-55
2023/07/08 02:05:52;;;;;;;8.50;5.50;;;16.60;99.90;;;;;;4972034;28;20078;-58
2023/07/08 02:08:18;;;;;;;8.95;6.25;;;16.60;99.90;;;;;;4981838;28;20081;-46
2023/07/08 02:10:49;;;;;;;9.95;5.80;;;16.60;99.90;;;;;;4972964;28;20089;-57
2023/07/08 02:13:15;;;;;;;10.88;5.65;;;16.60;99.90;;;;;;4961976;28;20047;-51
2023/07/08 02:15:40;;;;;;;9.30;5.50;;;16.60;99.90;;;;;;4962773;28;20493;-47
2023/07/08 02:18:06;;;;;;;8.95;5.75;;;16.60;99.90;;;;;;4962713;28;20069;-53
2023/07/08 02:20:31;;;;;;;9.10;5.95;;;16.60;99.90;;;;;;4962087;28;20041;-48
2023/07/08 02:22:57;;;;;;;7.38;5.93;;;16.50;99.90;;;;;;4963054;28;20046;-50
2023/07/08 02:25:23;;;;;;;7.63;5.80;;;16.50;99.90;;;;;;4962044;28;20070;-52
2023/07/08 02:27:49;;;;;;;8.25;5.95;;;16.50;99.90;;;;;;4962175;28;20089;-51
2023/07/08 02:30:14;;;;;;;8.18;6.15;;;16.50;99.90;;;;;;4965936;28;20093;-51
2023/07/08 02:32:40;;;;;;;8.95;6.47;;;16.40;99.90;;;;;;4980816;28;20101;-50
2023/07/08 02:35:08;;;;;;;8.23;6.00;;;16.40;99.90;;;;;;4981753;28;20042;-52
2023/07/08 02:37:34;;;;;;;9.85;6.13;;;16.40;99.90;;;;;;4980785;28;20065;-56
2023/07/08 02:40:00;;;;;;;11.85;5.97;;;16.30;99.90;;;;;;4981299;28;20042;-50
2023/07/08 02:42:26;;;;;;;6.90;5.45;;;16.40;99.90;;;;;;4981820;28;20054;-57
2023/07/08 02:44:52;;;;;;;9.70;6.47;;;16.30;99.90;;;;;;4981393;28;20050;-56
2023/07/08 02:47:17;;;;;;;7.60;6.00;;;16.30;99.90;;;;;;4981004;28;20104;-58
2023/07/08 02:49:43;;;;;;;8.60;6.20;;;16.30;99.90;;;;;;4981316;28;20053;-50
2023/07/08 02:52:09;;;;;;;8.52;6.03;;;16.30;99.90;;;;;;4980112;28;20042;-56
2023/07/08 02:54:34;;;;;;;7.45;6.20;;;16.30;99.90;;;;;;4980086;28;20509;-49
2023/07/08 02:57:00;;;;;;;8.55;6.05;;;16.30;99.90;;;;;;4981677;28;20515;-56
2023/07/08 02:59:28;;;;;;;9.93;6.72;;;16.30;99.90;;;;;;4981649;28;20038;-58
2023/07/08 03:01:53;;;;;;;8.50;6.10;;;16.20;99.90;;;;;;4981464;28;20077;-57
2023/07/08 03:04:21;;;;;;;10.27;6.28;;;16.20;99.90;;;;;;4980595;28;20152;-58
2023/07/08 03:06:49;;;;;;;9.75;6.57;;;16.20;99.90;;;;;;4981479;28;20308;-51
2023/07/08 03:09:15;;;;;;;8.63;6.10;;;16.30;99.90;;;;;;4980364;28;20074;-52
2023/07/08 03:11:40;;;;;;;7.75;6.13;;;16.40;99.90;;;;;;4980521;28;20132;-49
2023/07/08 03:14:06;;;;;;;11.10;6.25;;;16.10;99.90;;;;;;4981289;28;20658;-51
2023/07/08 03:16:32;;;;;;;8.80;6.07;;;16.10;99.90;;;;;;4981365;28;20038;-52
2023/07/08 03:18:58;;;;;;;8.45;6.45;;;16.10;99.90;;;;;;4980742;28;20031;-51
2023/07/08 03:21:24;;;;;;;8.23;6.25;;;16.10;99.90;;;;;;4980869;28;20088;-53
2023/07/08 03:23:51;;;;;;;9.25;6.47;;;16.10;99.90;;;;;;4981194;28;20054;-53
2023/07/08 03:26:20;;;;;;;13.32;6.70;;;16.10;99.90;;;;;;4979299;28;20074;-53
2023/07/08 03:28:48;;;;;;;9.00;6.22;;;16.20;99.90;;;;;;4980522;28;20133;-55
2023/07/08 03:31:14;;;;;;;12.07;6.90;;;16.10;99.90;;;;;;4981090;28;20050;-54
2023/07/08 03:33:40;;;;;;;9.05;6.60;;;16.10;99.90;;;;;;4981119;28;20038;-57
2023/07/08 03:36:24;;;;;;;9.13;6.75;;;16.10;99.90;;;;;;4980368;28;20042;-51
2023/07/08 03:38:55;;;;;;;10.40;6.95;;;16.10;99.90;;;;;;4980604;28;20057;-47
2023/07/08 03:41:21;;;;;;;8.93;6.93;;;16.00;99.90;;;;;;4980582;28;20062;-54
2023/07/08 03:43:47;;;;;;;9.32;7.05;;;16.00;99.90;;;;;;4982513;28;20405;-57
2023/07/08 03:46:16;;;;;;;11.40;6.80;;;16.00;99.90;;;;;;4984424;28;20694;-57
2023/07/08 03:48:42;;;;;;;10.43;7.45;;;16.30;99.90;;;;;;4984355;28;20050;-58
2023/07/08 03:51:19;;;;;;;10.52;7.43;;;16.10;99.90;;;;;;4983848;28;20052;-53
2023/07/08 03:53:45;;;;;;;9.90;7.05;;;16.00;99.90;;;;;;4984566;28;20393;-58
2023/07/08 03:56:13;;;;;;;9.20;7.03;;;16.00;99.90;;;;;;4983508;28;20042;-56
2023/07/08 03:58:38;;;;;;;9.27;7.43;;;16.00;99.90;;;;;;4983989;28;20137;-58
2023/07/08 04:01:05;;;;;;;13.45;7.13;;;16.10;99.90;;;;;;4974059;28;20122;-56
2023/07/08 04:03:30;;;;;;;12.80;7.63;;;16.10;99.90;;;;;;4964501;28;20059;-57
2023/07/08 04:05:56;;;;;;;12.80;7.88;;;16.10;99.90;;;;;;4964617;28;20034;-57
2023/07/08 04:08:22;;;;;;;12.43;7.22;;;16.10;99.90;;;;;;4963647;28;20058;-57
2023/07/08 04:10:47;;;;;;;12.38;7.60;;;16.20;99.90;;;;;;4964096;28;20121;-54
2023/07/08 04:13:13;;;;;;;9.52;7.05;;;16.10;99.90;;;;;;4963566;28;20054;-57
2023/07/08 04:15:38;;;;;;;11.18;7.22;;;16.10;99.90;;;;;;4962810;28;20196;-56
2023/07/08 04:18:04;;;;;;;10.00;7.30;;;16.10;99.90;;;;;;4965125;28;20537;-58
2023/07/08 04:20:29;;;;;;;8.57;7.13;;;16.10;99.90;;;;;;4964498;28;20051;-55
2023/07/08 04:22:55;;;;;;;9.07;7.43;;;16.10;99.90;;;;;;4963589;28;20046;-54
2023/07/08 04:25:21;;;;;;;11.55;7.13;;;16.10;99.90;;;;;;4963836;28;20497;-58
2023/07/08 04:27:47;;;;;;;10.40;7.15;;;16.20;99.90;;;;;;4964085;28;20226;-52
2023/07/08 04:30:25;;;;;;;10.55;7.20;;;16.20;99.90;;;;;;4963999;28;20386;-57
2023/07/08 04:32:51;;;;;;;10.50;7.38;;;16.20;99.90;;;;;;4964594;28;20043;-56
2023/07/08 04:35:17;;;;;;;10.95;7.03;;;16.30;99.90;;;;;;4964354;28;20051;-58
2023/07/08 04:37:43;;;;;;;10.52;7.43;;;16.30;99.90;;;;;;4964132;28;20109;-57
2023/07/08 04:40:21;;;;;;;9.75;7.20;;;16.30;99.90;;;;;;4962444;28;20043;-57
2023/07/08 04:42:47;;;;;;;8.45;6.78;;;16.40;99.90;;;;;;4964089;28;20446;-54
2023/07/08 04:45:15;;;;;;;12.02;7.20;;;16.50;99.90;;;;;;4961906;28;20328;-50
2023/07/08 04:47:40;;;;;;;9.60;6.72;;;16.50;99.90;;;;;;4964177;28;20104;-58
2023/07/08 04:50:08;;;;;;;9.30;6.55;;;16.60;99.90;;;;;;4964417;28;20047;-55
2023/07/08 04:52:33;;;;;;;8.50;7.13;;;16.60;99.90;;;;;;4963965;28;20444;-55
2023/07/08 04:54:59;;;;;;;8.43;6.75;;;16.70;99.90;;;;;;4961819;28;20081;-55
2023/07/08 04:57:25;;;;;;;9.30;7.05;;;16.90;99.90;;;;;;4964029;28;20074;-51
2023/07/08 04:59:50;;;;;;;8.27;6.65;;;17.20;99.90;;;;;;4963665;28;20045;-52
2023/07/08 05:02:16;;;;;;;8.38;6.32;;;17.80;99.90;;;;;;4963033;28;20366;-55
2023/07/08 05:04:41;;;;;;;8.13;6.07;;;18.00;99.90;;;;;;4963530;28;20051;-52
2023/07/08 05:07:07;;;;;;;10.05;6.32;;;18.30;99.90;;;;;;4963856;28;20058;-52
2023/07/08 05:09:33;;;;;;;9.30;6.18;;;18.40;99.90;;;;;;4962497;28;20775;-52
2023/07/08 05:11:58;;;;;;;11.38;6.30;;;18.50;99.90;;;;;;4962904;28;20525;-52
2023/07/08 05:14:24;;;;;;;10.30;6.32;;;18.60;99.90;;;;;;4963698;28;20492;-52
2023/07/08 05:16:49;;;;;;;7.47;5.70;;;18.70;99.90;;;;;;4963872;28;20462;-53
2023/07/08 05:19:15;;;;;;;9.68;5.90;;;18.90;99.90;;;;;;4963003;28;20066;-50
2023/07/08 05:21:41;;;;;;;9.25;6.18;;;19.00;99.90;;;;;;4963473;28;20093;-53
2023/07/08 05:24:07;;;;;;;7.70;5.80;;;19.20;99.90;;;;;;4962878;28;20046;-50
2023/07/08 05:26:33;;;;;;;7.53;5.70;;;19.40;99.70;;;;;;4963549;28;20058;-50
2023/07/08 05:28:59;;;;;;;7.95;5.20;;;19.50;99.40;;;;;;4962572;28;20050;-50
2023/07/08 05:31:25;;;;;;;8.13;5.82;;;19.80;99.10;;;;;;4963166;28;20382;-52
2023/07/08 05:33:50;;;;;;;9.00;5.50;;;20.00;98.50;;;;;;4963313;28;20510;-53
2023/07/08 05:36:16;;;;;;;11.40;6.32;;;20.20;97.80;;;;;;4963094;28;20042;-51
2023/07/08 05:38:42;;;;;;;7.63;5.63;;;20.30;97.60;;;;;;4961253;28;20066;-57
2023/07/08 05:41:07;;;;;;;7.82;5.43;;;20.40;97.50;;;;;;4963265;28;20047;-52
2023/07/08 05:43:33;;;;;;;7.55;5.60;;;20.60;97.30;;;;;;4962966;28;20043;-56
2023/07/08 05:46:01;;;;;;;6.82;5.28;;;20.80;97.10;;;;;;4962328;28;20433;-58
2023/07/08 05:48:26;;;;;;;6.95;5.78;;;21.20;96.80;;;;;;4962779;28;20050;-45
2023/07/08 05:50:53;;;;;;;7.88;5.40;;;21.50;96.10;;;;;;4962763;28;20121;-57
2023/07/08 05:53:20;;;;;;;6.70;5.32;;;21.80;95.80;;;;;;4962332;28;20051;-50
2023/07/08 05:55:47;;;;;;;6.88;5.32;;;22.00;95.20;;;;;;4962149;28;20073;-57
2023/07/08 05:58:15;;;;;;;10.80;5.70;;;22.10;94.80;;;;;;4964946;28;20137;-58
2023/07/08 06:00:42;;;;;;;7.07;5.22;;;22.20;94.70;;;;;;4971245;28;20097;-48
2023/07/08 06:03:07;;;;;;;8.65;5.35;;;22.40;94.50;;;;;;4962133;28;20042;-55
2023/07/08 06:05:33;;;;;;;8.68;5.72;;;22.50;94.30;;;;;;4961044;28;20142;-53
2023/07/08 06:07:59;;;;;;;8.30;5.22;;;22.50;94.10;;;;;;4962600;28;20133;-52
2023/07/08 06:10:25;;;;;;;6.53;4.63;;;22.50;94.10;;;;;;4961236;28;20504;-50
2023/07/08 06:12:51;;;;;;;6.13;4.90;;;22.80;94.10;;;;;;4962774;28;20479;-50
2023/07/08 06:15:16;;;;;;;6.55;4.65;;;22.80;93.80;;;;;;4961378;28;20042;-49
2023/07/08 06:17:42;;;;;;;5.65;4.50;;;22.90;93.70;;;;;;4962989;28;20046;-54
2023/07/08 06:20:08;;;;;;;7.32;4.80;;;23.00;93.40;;;;;;4961837;28;20513;-46
2023/07/08 06:22:33;;;;;;;6.80;5.13;;;23.10;93.30;;;;;;4962460;28;20101;-53
2023/07/08 06:24:59;;;;;;;6.40;4.55;;;23.20;93.20;;;;;;4962031;28;20043;-51
2023/07/08 06:27:25;;;;;;;6.53;4.95;;;23.30;93.20;;;;;;4961403;28;20677;-54
2023/07/08 06:29:50;;;;;;;6.70;4.82;;;23.30;93.00;;;;;;4962112;28;20282;-55
2023/07/08 06:32:16;;;;;;;6.05;4.53;;;23.50;93.00;;;;;;4961997;28;20343;-53
2023/07/08 06:34:42;;;;;;;7.93;4.75;;;23.60;92.90;;;;;;4961027;28;20042;-55
2023/07/08 06:37:07;;;;;;;6.63;4.68;;;23.90;92.70;;;;;;4961804;28;20508;-47
2023/07/08 06:39:33;;;;;;;6.18;4.15;;;24.00;92.50;;;;;;4960194;28;20082;-58
2023/07/08 06:41:59;;;;;;;6.72;4.13;;;24.10;92.50;;;;;;4962398;28;20047;-55
2023/07/08 06:44:25;;;;;;;6.57;4.78;;;24.20;92.50;;;;;;4961370;28;20050;-56
2023/07/08 06:46:51;;;;;;;8.60;4.25;;;24.40;92.60;;;;;;4962074;28;20093;-50
2023/07/08 06:49:17;;;;;;;6.22;3.95;;;24.50;92.60;;;;;;4961822;28;20046;-52
2023/07/08 06:51:44;;;;;;;5.80;4.15;;;24.50;92.40;;;;;;4962644;28;20050;-47
2023/07/08 06:54:11;;;;;;;5.50;4.05;;;24.60;92.30;;;;;;4960414;28;20114;-50
2023/07/08 06:56:41;;;;;;;7.35;4.00;;;24.80;92.10;;;;;;4965967;28;20050;-56
2023/07/08 06:59:08;;;;;;;6.38;4.40;;;24.60;92.00;;;;;;4973559;28;20051;-50
2023/07/08 07:01:34;;;;;;;5.57;4.15;;;24.70;92.20;;;;;;4967589;28;20429;-53
2023/07/08 07:04:01;;;;;;;6.65;4.55;;;24.80;92.10;;;;;;4968688;28;20069;-47
2023/07/08 07:06:26;;;;;;;6.95;4.53;;;24.90;92.00;;;;;;4961556;28;20060;-56
2023/07/08 07:08:52;;;;;;;6.30;4.20;;;25.10;91.90;;;;;;4960535;28;20039;-55
2023/07/08 07:11:19;;;;;;;6.78;4.40;;;25.20;91.70;;;;;;4961734;28;20039;-51
2023/07/08 07:13:46;;;;;;;14.68;9.45;;;25.30;91.50;;;;;;4962128;28;20039;-57
2023/07/08 07:16:12;;;;;;;12.70;6.47;;;25.40;91.40;;;;;;4961919;28;20057;-55
2023/07/08 07:18:37;;;;;;;6.20;4.40;;;25.50;91.50;;;;;;4962634;28;20039;-55
2023/07/08 07:21:03;;;;;;;6.55;5.00;;;25.60;91.50;;;;;;4965750;28;20117;-58
2023/07/08 07:23:29;;;;;;;10.15;5.43;;;25.60;91.50;;;;;;4964825;28;20130;-55
2023/07/08 07:25:54;;;;;;;8.65;4.20;;;25.70;91.60;;;;;;4964817;28;20402;-54
2023/07/08 07:28:20;;;;;;;6.78;4.28;;;25.80;91.60;;;;;;4965297;28;20042;-58
2023/07/08 07:30:47;;;;;;;8.75;4.05;;;25.70;91.50;;;;;;4965543;28;20118;-58
2023/07/08 07:33:13;;;;;;;5.72;3.88;;;25.70;91.50;;;;;;4965316;28;20497;-56
2023/07/08 07:35:43;;;;;;;6.10;3.80;;;25.80;91.40;;;;;;4973342;28;20042;-54
2023/07/08 07:38:09;;;;;;;5.10;3.47;;;25.90;91.40;;;;;;4976359;28;20104;-53
2023/07/08 07:40:34;;;;;;;7.97;4.22;;;26.00;91.50;;;;;;4984515;28;20060;-52
2023/07/08 07:43:00;;;;;;;5.70;3.67;;;26.10;91.20;;;;;;4984162;28;20112;-48
2023/07/08 07:45:26;;;;;;;8.68;4.10;;;26.20;91.20;;;;;;4984919;28;20042;-51
2023/07/08 07:47:52;;;;;;;8.13;3.95;;;26.20;91.20;;;;;;4984767;28;20038;-51
2023/07/08 07:50:17;;;;;;;8.57;3.72;;;26.20;91.00;;;;;;4983325;28;20258;-54
2023/07/08 07:52:43;;;;;;;8.05;3.67;;;26.10;91.20;;;;;;4983747;28;20505;-52
2023/07/08 07:55:09;;;;;;;5.47;3.90;;;26.10;91.50;;;;;;4972053;28;20074;-55
2023/07/08 07:57:34;;;;;;;8.07;3.75;;;26.10;91.30;;;;;;4965205;28;20477;-55
2023/07/08 08:00:00;;;;;;;7.88;3.63;;;26.10;91.20;;;;;;4964425;28;20035;-54
2023/07/08 08:02:26;;;;;;;8.00;3.72;;;26.20;91.30;;;;;;4975454;28;20368;-57
2023/07/08 08:04:51;;;;;;;5.85;3.50;;;26.20;91.20;;;;;;4963363;28;20190;-49
2023/07/08 08:07:17;;;;;;;6.78;3.80;;;26.40;91.40;;;;;;4964749;28;20135;-57
2023/07/08 08:09:42;;;;;;;8.70;3.95;;;26.40;91.20;;;;;;4963302;28;20247;-54
2023/07/08 08:12:11;;;;;;;6.65;3.40;;;26.40;91.40;;;;;;4964587;28;20116;-59
2023/07/08 08:14:36;;;;;;;7.95;3.45;;;26.50;91.30;;;;;;4964734;28;20472;-64
2023/07/08 08:17:03;;;;;;;5.78;3.55;;;26.50;91.10;;;;;;4964018;28;20108;-62
2023/07/08 08:19:28;;;;;;;6.72;3.88;;;26.60;91.00;;;;;;4964419;28;20088;-62
2023/07/08 08:21:54;;;;;;;5.88;3.53;;;26.60;91.00;;;;;;4964415;28;20082;-54
2023/07/08 08:24:20;;;;;;;5.03;3.38;;;26.60;91.00;;;;;;4970249;28;20046;-61
2023/07/08 08:26:45;;;;;;;6.90;3.63;;;26.60;90.90;;;;;;4972433;28;20053;-59
2023/07/08 08:29:11;;;;;;;6.38;3.38;;;26.70;90.90;;;;;;4972312;28;20062;-62
2023/07/08 08:31:36;;;;;;;4.88;3.28;;;26.80;90.90;;;;;;4963513;28;20489;-56
2023/07/08 08:34:02;;;;;;;7.63;3.10;;;26.80;91.00;;;;;;4963433;28;20035;-53
2023/07/08 08:36:28;;;;;;;4.70;3.50;;;26.90;91.00;;;;;;4964315;28;20732;-59
2023/07/08 08:38:53;;;;;;;6.93;3.65;;;27.00;91.00;;;;;;4963494;28;20034;-60
2023/07/08 08:41:29;;;;;;;5.88;2.83;;;27.10;90.70;;;;;;4964929;28;20093;-63
2023/07/08 08:43:55;;;;;;;5.32;3.35;;;27.10;90.60;;;;;;4963924;28;20054;-47
2023/07/08 08:46:53;;;;;;;6.38;3.22;;;27.10;90.40;;;;;;4966880;28;20260;-58
2023/07/08 08:49:32;;;;;;;4.82;3.13;;;27.20;90.30;;;;;;4975300;28;20444;-58
2023/07/08 08:51:58;;;;;;;5.97;3.10;;;27.40;90.30;;;;;;4963801;28;20050;-55
2023/07/08 08:54:24;;;;;;;4.50;3.15;;;27.50;90.00;;;;;;4962027;28;20101;-54
2023/07/08 08:57:11;;;;;;;6.07;3.35;;;27.60;90.30;;;;;;4964167;28;20498;-58
2023/07/08 08:59:49;;;;;;;4.40;3.03;;;27.80;90.40;;;;;;4962853;28;20046;-53
2023/07/08 09:02:47;;;;;;;6.75;3.05;;;28.00;90.30;;;;;;4963748;28;20090;-59
2023/07/08 09:05:13;;;;;;;4.05;2.90;;;28.10;89.70;;;;;;4963448;28;20105;-59
2023/07/08 09:08:01;;;;;;;6.57;2.90;;;28.20;89.60;;;;;;4963672;28;20649;-56
2023/07/08 09:11:09;;;;;;;7.05;2.95;;;28.30;89.20;;;;;;4961546;28;20078;-55
2023/07/08 09:13:37;;;;;;;6.10;3.15;;;28.40;90.00;;;;;;4958485;28;20055;-57
2023/07/08 09:16:15;;;;;;;5.18;3.15;;;28.60;89.40;;;;;;4965998;28;20047;-59
2023/07/08 09:19:04;;;;;;;7.97;2.90;;;28.70;87.90;;;;;;4964450;28;20105;-58
2023/07/08 09:21:46;;;;;;;6.43;2.85;;;28.70;87.90;;;;;;4964154;28;20449;-54
2023/07/08 09:24:27;;;;;;;6.00;3.33;;;28.70;87.90;;;;;;4970078;28;20073;-50
2023/07/08 09:26:56;;;;;;;4.03;2.70;;;28.90;86.50;;;;;;4984903;28;20030;-52
2023/07/08 09:29:22;;;;;;;7.43;3.47;;;29.00;86.80;;;;;;4985000;28;20716;-53
2023/07/08 09:31:48;;;;;;;6.78;3.28;;;29.00;86.30;;;;;;4984539;28;20042;-55
2023/07/08 09:34:15;;;;;;;4.30;3.05;;;29.10;85.30;;;;;;4984830;28;20046;-53
2023/07/08 09:36:43;;;;;;;5.38;3.10;;;29.30;86.20;;;;;;4984941;28;20054;-57
2023/07/08 09:39:14;;;;;;;5.65;3.45;;;29.60;86.20;;;;;;4983201;28;20045;-57
2023/07/08 09:41:43;;;;;;;3.90;3.03;;;29.70;85.60;;;;;;4984731;28;20042;-48
2023/07/08 09:44:25;;;;;;;8.38;3.22;;;29.80;85.20;;;;;;4984222;28;20469;-55
2023/07/08 09:46:53;;;;;;;6.97;3.40;;;29.80;84.90;;;;;;4985680;28;20168;-53
2023/07/08 09:49:32;;;;;;;5.15;2.97;;;30.00;85.10;;;;;;4985418;28;20050;-55
2023/07/08 09:51:58;;;;;;;5.25;3.20;;;30.00;84.10;;;;;;4984875;28;20110;-51
2023/07/08 09:54:25;;;;;;;6.82;3.45;;;30.10;84.50;;;;;;4983948;28;20101;-53
2023/07/08 09:57:09;;;;;;;3.67;2.97;;;30.20;84.60;;;;;;4966048;28;20757;-54
2023/07/08 09:59:42;;;;;;;8.07;3.60;;;30.30;84.10;;;;;;4965596;28;20123;-55
2023/07/08 10:02:38;;;;;;;7.13;3.40;;;30.40;83.30;;;;;;4965484;28;20084;-51
2023/07/08 10:05:12;;;;;;;5.07;3.22;;;30.40;83.60;;;;;;4965561;28;20065;-51
2023/07/08 10:07:38;;;;;;;4.28;3.05;;;30.50;82.80;;;;;;4965979;28;20061;-57
2023/07/08 10:10:09;;;;;;;5.25;3.60;;;30.60;83.30;;;;;;4964851;28;20501;-55
2023/07/08 10:12:39;;;;;;;4.57;2.97;;;30.70;82.70;;;;;;4966195;28;20149;-56
2023/07/08 10:15:21;;;;;;;6.10;3.50;;;30.70;81.80;;;;;;4965783;28;20081;-53
2023/07/08 10:17:47;;;;;;;4.45;3.60;;;30.70;81.50;;;;;;4965632;28;20074;-51
2023/07/08 10:20:13;;;;;;;5.82;3.00;;;30.70;82.30;;;;;;4965500;28;20085;-50
2023/07/08 10:23:01;;;;;;;6.93;3.28;;;30.80;82.50;;;;;;4965249;28;20039;-52
2023/07/08 10:25:47;;;;;;;6.72;3.50;;;30.90;82.90;;;;;;4964764;28;20556;-58
2023/07/08 10:28:21;;;;;;;6.30;3.53;;;31.00;80.70;;;;;;4963507;28;20078;-54
2023/07/08 10:31:04;;;;;;;7.15;3.85;;;30.90;81.50;;;;;;4964249;28;20133;-57
2023/07/08 10:33:39;;;;;;;5.28;3.50;;;31.10;82.20;;;;;;4964436;28;20585;-57
2023/07/08 10:36:40;;;;;;;5.18;3.30;;;31.10;81.20;;;;;;4964215;28;20039;-50
2023/07/08 10:39:33;;;;;;;7.60;3.80;;;31.10;81.70;;;;;;4964896;28;20038;-53
2023/07/08 10:42:22;;;;;;;5.93;3.28;;;31.20;81.60;;;;;;4965003;28;20046;-49
2023/07/08 10:45:04;;;;;;;6.47;3.53;;;31.40;82.20;;;;;;4965097;28;20047;-57
2023/07/08 10:47:55;;;;;;;4.78;3.20;;;31.50;81.70;;;;;;4964696;28;20046;-57
2023/07/08 10:50:39;;;;;;;6.63;4.05;;;31.50;81.70;;;;;;4963802;28;20047;-54
2023/07/08 10:53:20;;;;;;;6.80;3.72;;;31.50;82.10;;;;;;4963486;28;20047;-50
2023/07/08 10:56:04;;;;;;;5.75;3.67;;;31.60;80.70;;;;;;4969323;28;20046;-52
2023/07/08 10:58:41;;;;;;;8.65;3.80;;;31.60;81.50;;;;;;4969443;28;20993;-55
2023/07/08 11:01:30;;;;;;;4.57;3.40;;;31.60;81.00;;;;;;4968210;28;20101;-52
2023/07/08 11:04:28;;;;;;;4.57;3.88;;;31.50;80.90;;;;;;4969369;28;20055;-57
2023/07/08 11:07:03;;;;;;;5.38;3.80;;;31.40;81.60;;;;;;4966991;28;20075;-57
2023/07/08 11:09:42;;;;;;;5.97;3.75;;;31.40;80.70;;;;;;4968495;28;20046;-50
2023/07/08 11:12:34;;;;;;;4.15;3.25;;;31.50;80.50;;;;;;4968696;28;20063;-52
2023/07/08 11:15:18;;;;;;;7.20;3.80;;;31.70;82.10;;;;;;4968117;28;20046;-57
2023/07/08 11:17:55;;;;;;;4.72;3.70;;;31.70;80.50;;;;;;4968970;28;20046;-47
2023/07/08 11:20:35;;;;;;;7.40;3.42;;;31.80;79.90;;;;;;4968426;28;20165;-55
2023/07/08 11:23:30;;;;;;;4.18;3.47;;;31.70;80.50;;;;;;4966681;28;20105;-56
2023/07/08 11:26:22;;;;;;;8.32;4.05;;;31.80;80.60;;;;;;4968058;28;20047;-56
2023/07/08 11:28:51;;;;;;;5.60;3.88;;;32.00;81.00;;;;;;4967816;28;20043;-54
2023/07/08 11:31:17;;;;;;;4.38;3.30;;;32.10;82.40;;;;;;4968186;28;20053;-55
2023/07/08 11:33:45;;;;;;;4.05;3.55;;;32.20;80.90;;;;;;4987319;28;20039;-57
2023/07/08 11:36:12;;;;;;;4.45;3.58;;;32.30;81.10;;;;;;4977074;28;20053;-58
2023/07/08 11:38:48;;;;;;;5.55;4.22;;;32.50;79.00;;;;;;4967616;28;20039;-57
2023/07/08 11:41:18;;;;;;;6.22;3.80;;;32.50;79.90;;;;;;4972692;28;20054;-58
2023/07/08 11:43:52;;;;;;;3.65;3.25;;;32.50;79.00;;;;;;4967830;28;20073;-60
2023/07/08 11:46:28;;;;;;;5.20;3.45;;;32.50;78.90;;;;;;4969373;28;20043;-59
2023/07/08 11:49:14;;;;;;;5.25;3.72;;;32.60;80.30;;;;;;4984713;28;20452;-61
2023/07/08 11:51:44;;;;;;;7.35;3.85;;;32.60;80.50;;;;;;4985270;28;20129;-53
2023/07/08 11:54:21;;;;;;;3.92;3.53;;;32.60;80.10;;;;;;4984542;28;20500;-52
2023/07/08 11:57:16;;;;;;;4.13;3.42;;;32.70;78.40;;;;;;4986384;28;20046;-54
2023/07/08 11:59:42;;;;;;;5.28;3.65;;;32.80;79.20;;;;;;4984934;28;20070;-61
2023/07/08 12:02:18;;;;;;;7.05;4.20;;;32.90;79.90;;;;;;4977177;28;20141;-63
2023/07/08 12:05:13;;;;;;;5.63;3.97;;;33.00;78.30;;;;;;4985183;28;20054;-58
2023/07/08 12:07:48;;;;;;;6.07;4.00;;;33.10;77.70;;;;;;4978819;28;20129;-54
2023/07/08 12:10:18;;;;;;;5.07;3.58;;;33.10;76.70;;;;;;4968434;28;20047;-59
2023/07/08 12:12:46;;;;;;;5.63;4.03;;;33.10;76.90;;;;;;4967071;28;20110;-57
2023/07/08 12:15:22;;;;;;;6.53;3.72;;;33.10;77.20;;;;;;4967211;28;20045;-55
2023/07/08 12:17:48;;;;;;;5.85;4.30;;;33.00;78.10;;;;;;4966919;28;20178;-59
2023/07/08 12:20:27;;;;;;;6.20;4.03;;;33.00;78.20;;;;;;4967549;28;20062;-55
2023/07/08 12:22:53;;;;;;;4.93;3.63;;;33.00;78.40;;;;;;4966780;28;20042;-62
2023/07/08 12:25:21;;;;;;;6.47;3.72;;;33.10;78.60;;;;;;4966939;28;20545;-52
2023/07/08 12:27:47;;;;;;;7.05;3.70;;;33.10;76.60;;;;;;4967631;28;20196;-58
2023/07/08 12:30:15;;;;;;;7.78;3.80;;;33.20;75.70;;;;;;4967784;28;20042;-57
2023/07/08 12:32:41;;;;;;;6.20;3.70;;;33.20;74.40;;;;;;4967020;28;20049;-57
2023/07/08 12:35:28;;;;;;;7.63;4.20;;;33.10;75.90;;;;;;4969553;28;20643;-58
2023/07/08 12:38:01;;;;;;;4.82;4.00;;;33.00;76.60;;;;;;4983304;28;20046;-59
2023/07/08 12:40:28;;;;;;;5.18;3.70;;;33.10;77.50;;;;;;4974556;28;20059;-53
2023/07/08 12:42:56;;;;;;;9.27;4.00;;;33.10;77.80;;;;;;4976562;28;20042;-54
2023/07/08 12:45:25;;;;;;;8.70;4.47;;;33.10;78.10;;;;;;4974553;28;20058;-53
2023/07/08 12:47:50;;;;;;;5.50;3.58;;;33.20;77.30;;;;;;4973637;28;20578;-61
2023/07/08 12:50:16;;;;;;;4.93;3.92;;;33.10;77.30;;;;;;4983953;28;20046;-62
2023/07/08 12:52:46;;;;;;;6.10;4.35;;;33.20;77.30;;;;;;4984630;28;20463;-62
2023/07/08 12:55:14;;;;;;;6.93;4.03;;;33.40;76.80;;;;;;4984457;28;20062;-63
2023/07/08 12:57:48;;;;;;;6.63;3.90;;;33.50;76.30;;;;;;4985018;28;20058;-59
2023/07/08 13:00:31;;;;;;;9.15;3.88;;;33.70;75.80;;;;;;4985678;28;20034;-61